首页
METAR-TAF:

METAR-TAF

机场 :

马德里, 西班牙

阿道弗·苏亚雷斯马德里-巴拉哈斯机场

纬度: 40-27N, 经度: 003-33W, 海拔: 609米

当前天气观测

该预报发布于41分钟前的01:00 UTC
风速3节,风向
温度 1°C
湿度 100%
气压 1020 hPa
能见度10公里或以上
1500米以下无云,无积雨云

METAR: LEMD 190100Z 35003KT CAVOK 01/01 Q1020 NOSIG

时间: 02:41 (01:41 UTC)

预报

该预报发布于2小时和41分钟前的23:00 UTC
预报有效从19日的 00点(UTC)到 20日的 06点(UTC)
风速5节,风向多变
能见度10公里或以上
1500米以下无云,无积雨云
短暂存在
从 19日的 00点(UTC)到 19日的 09点(UTC)
风速6节,风向

TAF: LEMD 182300Z 1900/2006 VRB05KT CAVOK TX16/1915Z TN00/1906Z TEMPO 1900/1909 01006KT

超过4000个机场的气象观测和天气预报(METAR&TAF报告)。

可查询的气象台以黄色和红色小点在地图上表示。

将鼠标移到小点上方,可查看气象台名称。

然后点击查看天气观测和预报。

如需切换地图:点击带黑十字的绿色按钮放大地图;点击带横线的绿色按钮缩小地图;或者点击绿色箭头查看邻近地区的地图。


METAR-TAF: